<?xml version="1.0" encoding="UTF-8" standalone="no" ?>
<gpx xmlns="http://www.topografix.com/GPX/1/1" xmlns:xsi="http://www.w3.org/2001/XMLSchema-instance" xsi:schemaLocation="http://www.topografix.com/GPX/1/1 http://www.topografix.com/GPX/1/1/gpx.xsd" version="1.1" creator="VisuGPX - https://www.visugpx.com">
  <metadata>
    <name>Terre des 2 Caps </name>
    <desc><![CDATA[Circuit de 38 km au départ de Wissant]]></desc>
  </metadata>
  <trk>
    <name><![CDATA[10096780-Terre des 2 Caps ]]></name>
    <trkseg>
      <trkpt lat="50.88661" lon="1.66358">
        <ele>15</ele>
        <time>2019-09-10T14:32:32Z</time>
      </trkpt>
      <trkpt lat="50.88666" lon="1.66364">
        <ele>15</ele>
        <time>2019-09-10T14:32:33Z</time>
      </trkpt>
      <trkpt lat="50.88672" lon="1.66386">
        <ele>16</ele>
        <time>2019-09-10T14:32:36Z</time>
      </trkpt>
      <trkpt lat="50.88669" lon="1.664">
        <ele>16</ele>
        <time>2019-09-10T14:32:37Z</time>
      </trkpt>
      <trkpt lat="50.88683" lon="1.66471">
        <ele>19</ele>
        <time>2019-09-10T14:32:46Z</time>
      </trkpt>
      <trkpt lat="50.88702" lon="1.66518">
        <ele>21</ele>
        <time>2019-09-10T14:32:52Z</time>
      </trkpt>
      <trkpt lat="50.88718" lon="1.66575">
        <ele>24</ele>
        <time>2019-09-10T14:32:59Z</time>
      </trkpt>
      <trkpt lat="50.88743" lon="1.66654">
        <ele>26</ele>
        <time>2019-09-10T14:33:09Z</time>
      </trkpt>
      <trkpt lat="50.88775" lon="1.66795">
        <ele>23</ele>
        <time>2019-09-10T14:33:26Z</time>
      </trkpt>
      <trkpt lat="50.88773" lon="1.66797">
        <ele>23</ele>
        <time>2019-09-10T14:33:26Z</time>
      </trkpt>
      <trkpt lat="50.88775" lon="1.66795">
        <ele>23</ele>
        <time>2019-09-10T14:33:27Z</time>
      </trkpt>
      <trkpt lat="50.88779" lon="1.66809">
        <ele>22</ele>
        <time>2019-09-10T14:33:28Z</time>
      </trkpt>
      <trkpt lat="50.88809" lon="1.66934">
        <ele>22</ele>
        <time>2019-09-10T14:33:43Z</time>
      </trkpt>
      <trkpt lat="50.88854" lon="1.67137">
        <ele>24</ele>
        <time>2019-09-10T14:34:08Z</time>
      </trkpt>
      <trkpt lat="50.88854" lon="1.67175">
        <ele>24</ele>
        <time>2019-09-10T14:34:12Z</time>
      </trkpt>
      <trkpt lat="50.88834" lon="1.67323">
        <ele>27</ele>
        <time>2019-09-10T14:34:29Z</time>
      </trkpt>
      <trkpt lat="50.88833" lon="1.67354">
        <ele>27</ele>
        <time>2019-09-10T14:34:32Z</time>
      </trkpt>
      <trkpt lat="50.8884" lon="1.67429">
        <ele>30</ele>
        <time>2019-09-10T14:34:41Z</time>
      </trkpt>
      <trkpt lat="50.88851" lon="1.67524">
        <ele>32</ele>
        <time>2019-09-10T14:34:52Z</time>
      </trkpt>
      <trkpt lat="50.8886" lon="1.67574">
        <ele>32</ele>
        <time>2019-09-10T14:34:57Z</time>
      </trkpt>
      <trkpt lat="50.88887" lon="1.67684">
        <ele>33</ele>
        <time>2019-09-10T14:35:11Z</time>
      </trkpt>
      <trkpt lat="50.88966" lon="1.67924">
        <ele>32</ele>
        <time>2019-09-10T14:35:41Z</time>
      </trkpt>
      <trkpt lat="50.88981" lon="1.67987">
        <ele>32</ele>
        <time>2019-09-10T14:35:49Z</time>
      </trkpt>
      <trkpt lat="50.89011" lon="1.68436">
        <ele>44</ele>
        <time>2019-09-10T14:36:39Z</time>
      </trkpt>
      <trkpt lat="50.89009" lon="1.68478">
        <ele>44</ele>
        <time>2019-09-10T14:36:44Z</time>
      </trkpt>
      <trkpt lat="50.88979" lon="1.68633">
        <ele>39</ele>
        <time>2019-09-10T14:37:02Z</time>
      </trkpt>
      <trkpt lat="50.88976" lon="1.6866">
        <ele>38</ele>
        <time>2019-09-10T14:37:05Z</time>
      </trkpt>
      <trkpt lat="50.88977" lon="1.69029">
        <ele>37</ele>
        <time>2019-09-10T14:37:47Z</time>
      </trkpt>
      <trkpt lat="50.88963" lon="1.69136">
        <ele>37</ele>
        <time>2019-09-10T14:37:59Z</time>
      </trkpt>
      <trkpt lat="50.88958" lon="1.69157">
        <ele>37</ele>
        <time>2019-09-10T14:38:02Z</time>
      </trkpt>
      <trkpt lat="50.88921" lon="1.69421">
        <ele>36</ele>
        <time>2019-09-10T14:38:32Z</time>
      </trkpt>
      <trkpt lat="50.88908" lon="1.69481">
        <ele>36</ele>
        <time>2019-09-10T14:38:39Z</time>
      </trkpt>
      <trkpt lat="50.88879" lon="1.69575">
        <ele>37</ele>
        <time>2019-09-10T14:38:51Z</time>
      </trkpt>
      <trkpt lat="50.88852" lon="1.69646">
        <ele>36</ele>
        <time>2019-09-10T14:39:00Z</time>
      </trkpt>
      <trkpt lat="50.88721" lon="1.69887">
        <ele>34</ele>
        <time>2019-09-10T14:39:36Z</time>
      </trkpt>
      <trkpt lat="50.88654" lon="1.69995">
        <ele>35</ele>
        <time>2019-09-10T14:39:53Z</time>
      </trkpt>
      <trkpt lat="50.88636" lon="1.70039">
        <ele>36</ele>
        <time>2019-09-10T14:39:59Z</time>
      </trkpt>
      <trkpt lat="50.88613" lon="1.70127">
        <ele>39</ele>
        <time>2019-09-10T14:40:09Z</time>
      </trkpt>
      <trkpt lat="50.88588" lon="1.70191">
        <ele>41</ele>
        <time>2019-09-10T14:40:18Z</time>
      </trkpt>
      <trkpt lat="50.88551" lon="1.70271">
        <ele>43</ele>
        <time>2019-09-10T14:40:29Z</time>
      </trkpt>
      <trkpt lat="50.88516" lon="1.70355">
        <ele>44</ele>
        <time>2019-09-10T14:40:40Z</time>
      </trkpt>
      <trkpt lat="50.88443" lon="1.70636">
        <ele>45</ele>
        <time>2019-09-10T14:41:14Z</time>
      </trkpt>
      <trkpt lat="50.88426" lon="1.70683">
        <ele>45</ele>
        <time>2019-09-10T14:41:20Z</time>
      </trkpt>
      <trkpt lat="50.88375" lon="1.70803">
        <ele>48</ele>
        <time>2019-09-10T14:41:37Z</time>
      </trkpt>
      <trkpt lat="50.88364" lon="1.70825">
        <ele>48</ele>
        <time>2019-09-10T14:41:40Z</time>
      </trkpt>
      <trkpt lat="50.88295" lon="1.70933">
        <ele>49</ele>
        <time>2019-09-10T14:41:57Z</time>
      </trkpt>
      <trkpt lat="50.88289" lon="1.70947">
        <ele>49</ele>
        <time>2019-09-10T14:41:59Z</time>
      </trkpt>
      <trkpt lat="50.88267" lon="1.71031">
        <ele>50</ele>
        <time>2019-09-10T14:42:09Z</time>
      </trkpt>
      <trkpt lat="50.88237" lon="1.71092">
        <ele>51</ele>
        <time>2019-09-10T14:42:18Z</time>
      </trkpt>
      <trkpt lat="50.88226" lon="1.71118">
        <ele>52</ele>
        <time>2019-09-10T14:42:21Z</time>
      </trkpt>
      <trkpt lat="50.88224" lon="1.7113">
        <ele>53</ele>
        <time>2019-09-10T14:42:23Z</time>
      </trkpt>
      <trkpt lat="50.88219" lon="1.71212">
        <ele>54</ele>
        <time>2019-09-10T14:42:32Z</time>
      </trkpt>
      <trkpt lat="50.88209" lon="1.71325">
        <ele>54</ele>
        <time>2019-09-10T14:42:45Z</time>
      </trkpt>
      <trkpt lat="50.88181" lon="1.71429">
        <ele>53</ele>
        <time>2019-09-10T14:42:58Z</time>
      </trkpt>
      <trkpt lat="50.88176" lon="1.71456">
        <ele>54</ele>
        <time>2019-09-10T14:43:01Z</time>
      </trkpt>
      <trkpt lat="50.88173" lon="1.71479">
        <ele>54</ele>
        <time>2019-09-10T14:43:03Z</time>
      </trkpt>
      <trkpt lat="50.88175" lon="1.71532">
        <ele>54</ele>
        <time>2019-09-10T14:43:09Z</time>
      </trkpt>
      <trkpt lat="50.88172" lon="1.71562">
        <ele>54</ele>
        <time>2019-09-10T14:43:13Z</time>
      </trkpt>
      <trkpt lat="50.88165" lon="1.71601">
        <ele>54</ele>
        <time>2019-09-10T14:43:17Z</time>
      </trkpt>
      <trkpt lat="50.88144" lon="1.71689">
        <ele>55</ele>
        <time>2019-09-10T14:43:28Z</time>
      </trkpt>
      <trkpt lat="50.8812" lon="1.71742">
        <ele>56</ele>
        <time>2019-09-10T14:43:35Z</time>
      </trkpt>
      <trkpt lat="50.8804" lon="1.71894">
        <ele>59</ele>
        <time>2019-09-10T14:43:57Z</time>
      </trkpt>
      <trkpt lat="50.88001" lon="1.71984">
        <ele>61</ele>
        <time>2019-09-10T14:44:10Z</time>
      </trkpt>
      <trkpt lat="50.8801" lon="1.71997">
        <ele>61</ele>
        <time>2019-09-10T14:44:12Z</time>
      </trkpt>
      <trkpt lat="50.88026" lon="1.72052">
        <ele>64</ele>
        <time>2019-09-10T14:44:19Z</time>
      </trkpt>
      <trkpt lat="50.88062" lon="1.7226">
        <ele>72</ele>
        <time>2019-09-10T14:44:43Z</time>
      </trkpt>
      <trkpt lat="50.88076" lon="1.72322">
        <ele>72</ele>
        <time>2019-09-10T14:44:50Z</time>
      </trkpt>
      <trkpt lat="50.88096" lon="1.72386">
        <ele>74</ele>
        <time>2019-09-10T14:44:58Z</time>
      </trkpt>
      <trkpt lat="50.88127" lon="1.72457">
        <ele>78</ele>
        <time>2019-09-10T14:45:08Z</time>
      </trkpt>
      <trkpt lat="50.88195" lon="1.72598">
        <ele>82</ele>
        <time>2019-09-10T14:45:28Z</time>
      </trkpt>
      <trkpt lat="50.88209" lon="1.72635">
        <ele>84</ele>
        <time>2019-09-10T14:45:33Z</time>
      </trkpt>
      <trkpt lat="50.88221" lon="1.7267">
        <ele>84</ele>
        <time>2019-09-10T14:45:37Z</time>
      </trkpt>
      <trkpt lat="50.88233" lon="1.72736">
        <ele>87</ele>
        <time>2019-09-10T14:45:45Z</time>
      </trkpt>
      <trkpt lat="50.8824" lon="1.72797">
        <ele>89</ele>
        <time>2019-09-10T14:45:52Z</time>
      </trkpt>
      <trkpt lat="50.88248" lon="1.72903">
        <ele>92</ele>
        <time>2019-09-10T14:46:04Z</time>
      </trkpt>
      <trkpt lat="50.88252" lon="1.72922">
        <ele>92</ele>
        <time>2019-09-10T14:46:06Z</time>
      </trkpt>
      <trkpt lat="50.88256" lon="1.72927">
        <ele>93</ele>
        <time>2019-09-10T14:46:07Z</time>
      </trkpt>
      <trkpt lat="50.88262" lon="1.72928">
        <ele>93</ele>
        <time>2019-09-10T14:46:08Z</time>
      </trkpt>
      <trkpt lat="50.8827" lon="1.72924">
        <ele>93</ele>
        <time>2019-09-10T14:46:10Z</time>
      </trkpt>
      <trkpt lat="50.88281" lon="1.72916">
        <ele>93</ele>
        <time>2019-09-10T14:46:12Z</time>
      </trkpt>
      <trkpt lat="50.88355" lon="1.72876">
        <ele>96</ele>
        <time>2019-09-10T14:46:26Z</time>
      </trkpt>
      <trkpt lat="50.88369" lon="1.72865">
        <ele>97</ele>
        <time>2019-09-10T14:46:28Z</time>
      </trkpt>
      <trkpt lat="50.88381" lon="1.72852">
        <ele>98</ele>
        <time>2019-09-10T14:46:31Z</time>
      </trkpt>
      <trkpt lat="50.88427" lon="1.72775">
        <ele>104</ele>
        <time>2019-09-10T14:46:43Z</time>
      </trkpt>
      <trkpt lat="50.88451" lon="1.7274">
        <ele>107</ele>
        <time>2019-09-10T14:46:49Z</time>
      </trkpt>
      <trkpt lat="50.88479" lon="1.72713">
        <ele>110</ele>
        <time>2019-09-10T14:46:54Z</time>
      </trkpt>
      <trkpt lat="50.88509" lon="1.72699">
        <ele>111</ele>
        <time>2019-09-10T14:47:00Z</time>
      </trkpt>
      <trkpt lat="50.88561" lon="1.727">
        <ele>115</ele>
        <time>2019-09-10T14:47:09Z</time>
      </trkpt>
      <trkpt lat="50.88609" lon="1.72705">
        <ele>119</ele>
        <time>2019-09-10T14:47:18Z</time>
      </trkpt>
      <trkpt lat="50.88657" lon="1.7272">
        <ele>122</ele>
        <time>2019-09-10T14:47:27Z</time>
      </trkpt>
      <trkpt lat="50.88754" lon="1.72767">
        <ele>131</ele>
        <time>2019-09-10T14:47:45Z</time>
      </trkpt>
      <trkpt lat="50.88776" lon="1.72785">
        <ele>133</ele>
        <time>2019-09-10T14:47:49Z</time>
      </trkpt>
      <trkpt lat="50.88804" lon="1.72818">
        <ele>137</ele>
        <time>2019-09-10T14:47:55Z</time>
      </trkpt>
      <trkpt lat="50.88824" lon="1.72846">
        <ele>139</ele>
        <time>2019-09-10T14:48:00Z</time>
      </trkpt>
      <trkpt lat="50.88838" lon="1.72871">
        <ele>140</ele>
        <time>2019-09-10T14:48:04Z</time>
      </trkpt>
      <trkpt lat="50.88851" lon="1.729">
        <ele>140</ele>
        <time>2019-09-10T14:48:08Z</time>
      </trkpt>
      <trkpt lat="50.88868" lon="1.72973">
        <ele>140</ele>
        <time>2019-09-10T14:48:16Z</time>
      </trkpt>
      <trkpt lat="50.8889" lon="1.73078">
        <ele>137</ele>
        <time>2019-09-10T14:48:29Z</time>
      </trkpt>
      <trkpt lat="50.88901" lon="1.73109">
        <ele>137</ele>
        <time>2019-09-10T14:48:33Z</time>
      </trkpt>
      <trkpt lat="50.88935" lon="1.73175">
        <ele>135</ele>
        <time>2019-09-10T14:48:42Z</time>
      </trkpt>
      <trkpt lat="50.88953" lon="1.73224">
        <ele>134</ele>
        <time>2019-09-10T14:48:49Z</time>
      </trkpt>
      <trkpt lat="50.88971" lon="1.73268">
        <ele>132</ele>
        <time>2019-09-10T14:48:55Z</time>
      </trkpt>
      <trkpt lat="50.89022" lon="1.73347">
        <ele>129</ele>
        <time>2019-09-10T14:49:07Z</time>
      </trkpt>
      <trkpt lat="50.89032" lon="1.73369">
        <ele>129</ele>
        <time>2019-09-10T14:49:10Z</time>
      </trkpt>
      <trkpt lat="50.89059" lon="1.73437">
        <ele>126</ele>
        <time>2019-09-10T14:49:19Z</time>
      </trkpt>
      <trkpt lat="50.8909" lon="1.73502">
        <ele>123</ele>
        <time>2019-09-10T14:49:29Z</time>
      </trkpt>
      <trkpt lat="50.89094" lon="1.73523">
        <ele>122</ele>
        <time>2019-09-10T14:49:31Z</time>
      </trkpt>
      <trkpt lat="50.89105" lon="1.73601">
        <ele>120</ele>
        <time>2019-09-10T14:49:40Z</time>
      </trkpt>
      <trkpt lat="50.89134" lon="1.73676">
        <ele>118</ele>
        <time>2019-09-10T14:49:50Z</time>
      </trkpt>
      <trkpt lat="50.89159" lon="1.73734">
        <ele>115</ele>
        <time>2019-09-10T14:49:58Z</time>
      </trkpt>
      <trkpt lat="50.89213" lon="1.73871">
        <ele>112</ele>
        <time>2019-09-10T14:50:16Z</time>
      </trkpt>
      <trkpt lat="50.8923" lon="1.73876">
        <ele>111</ele>
        <time>2019-09-10T14:50:19Z</time>
      </trkpt>
      <trkpt lat="50.89326" lon="1.73874">
        <ele>117</ele>
        <time>2019-09-10T14:50:36Z</time>
      </trkpt>
      <trkpt lat="50.89343" lon="1.73872">
        <ele>118</ele>
        <time>2019-09-10T14:50:39Z</time>
      </trkpt>
      <trkpt lat="50.89355" lon="1.73866">
        <ele>119</ele>
        <time>2019-09-10T14:50:41Z</time>
      </trkpt>
      <trkpt lat="50.89382" lon="1.73839">
        <ele>122</ele>
        <time>2019-09-10T14:50:47Z</time>
      </trkpt>
      <trkpt lat="50.89457" lon="1.73751">
        <ele>127</ele>
        <time>2019-09-10T14:51:04Z</time>
      </trkpt>
      <trkpt lat="50.89481" lon="1.73719">
        <ele>129</ele>
        <time>2019-09-10T14:51:09Z</time>
      </trkpt>
      <trkpt lat="50.89499" lon="1.7369">
        <ele>129</ele>
        <time>2019-09-10T14:51:14Z</time>
      </trkpt>
      <trkpt lat="50.89554" lon="1.73594">
        <ele>129</ele>
        <time>2019-09-10T14:51:28Z</time>
      </trkpt>
      <trkpt lat="50.89614" lon="1.73499">
        <ele>127</ele>
        <time>2019-09-10T14:51:43Z</time>
      </trkpt>
      <trkpt lat="50.8963" lon="1.73479">
        <ele>126</ele>
        <time>2019-09-10T14:51:47Z</time>
      </trkpt>
      <trkpt lat="50.89655" lon="1.73455">
        <ele>125</ele>
        <time>2019-09-10T14:51:52Z</time>
      </trkpt>
      <trkpt lat="50.89673" lon="1.73443">
        <ele>124</ele>
        <time>2019-09-10T14:51:56Z</time>
      </trkpt>
      <trkpt lat="50.89688" lon="1.73435">
        <ele>123</ele>
        <time>2019-09-10T14:51:59Z</time>
      </trkpt>
      <trkpt lat="50.89713" lon="1.73433">
        <ele>122</ele>
        <time>2019-09-10T14:52:03Z</time>
      </trkpt>
      <trkpt lat="50.89743" lon="1.73436">
        <ele>121</ele>
        <time>2019-09-10T14:52:08Z</time>
      </trkpt>
      <trkpt lat="50.89855" lon="1.73457">
        <ele>116</ele>
        <time>2019-09-10T14:52:28Z</time>
      </trkpt>
      <trkpt lat="50.89888" lon="1.73461">
        <ele>114</ele>
        <time>2019-09-10T14:52:34Z</time>
      </trkpt>
      <trkpt lat="50.89912" lon="1.7346">
        <ele>113</ele>
        <time>2019-09-10T14:52:39Z</time>
      </trkpt>
      <trkpt lat="50.9013" lon="1.73356">
        <ele>102</ele>
        <time>2019-09-10T14:53:19Z</time>
      </trkpt>
      <trkpt lat="50.90197" lon="1.73318">
        <ele>97</ele>
        <time>2019-09-10T14:53:32Z</time>
      </trkpt>
      <trkpt lat="50.90301" lon="1.73248">
        <ele>90</ele>
        <time>2019-09-10T14:53:52Z</time>
      </trkpt>
      <trkpt lat="50.90324" lon="1.73239">
        <ele>90</ele>
        <time>2019-09-10T14:53:56Z</time>
      </trkpt>
      <trkpt lat="50.90342" lon="1.73234">
        <ele>89</ele>
        <time>2019-09-10T14:53:59Z</time>
      </trkpt>
      <trkpt lat="50.90366" lon="1.73236">
        <ele>88</ele>
        <time>2019-09-10T14:54:04Z</time>
      </trkpt>
      <trkpt lat="50.90533" lon="1.73267">
        <ele>83</ele>
        <time>2019-09-10T14:54:33Z</time>
      </trkpt>
      <trkpt lat="50.90701" lon="1.73271">
        <ele>78</ele>
        <time>2019-09-10T14:55:03Z</time>
      </trkpt>
      <trkpt lat="50.90753" lon="1.73266">
        <ele>77</ele>
        <time>2019-09-10T14:55:13Z</time>
      </trkpt>
      <trkpt lat="50.90834" lon="1.73238">
        <ele>75</ele>
        <time>2019-09-10T14:55:27Z</time>
      </trkpt>
      <trkpt lat="50.9086" lon="1.73226">
        <ele>75</ele>
        <time>2019-09-10T14:55:32Z</time>
      </trkpt>
      <trkpt lat="50.90886" lon="1.73209">
        <ele>75</ele>
        <time>2019-09-10T14:55:37Z</time>
      </trkpt>
      <trkpt lat="50.90914" lon="1.73182">
        <ele>73</ele>
        <time>2019-09-10T14:55:43Z</time>
      </trkpt>
      <trkpt lat="50.90953" lon="1.73141">
        <ele>74</ele>
        <time>2019-09-10T14:55:51Z</time>
      </trkpt>
      <trkpt lat="50.9108" lon="1.72992">
        <ele>69</ele>
        <time>2019-09-10T14:56:19Z</time>
      </trkpt>
      <trkpt lat="50.91106" lon="1.72959">
        <ele>70</ele>
        <time>2019-09-10T14:56:25Z</time>
      </trkpt>
      <trkpt lat="50.91133" lon="1.72918">
        <ele>70</ele>
        <time>2019-09-10T14:56:32Z</time>
      </trkpt>
      <trkpt lat="50.91242" lon="1.72731">
        <ele>67</ele>
        <time>2019-09-10T14:57:01Z</time>
      </trkpt>
      <trkpt lat="50.91294" lon="1.7266">
        <ele>65</ele>
        <time>2019-09-10T14:57:13Z</time>
      </trkpt>
      <trkpt lat="50.91306" lon="1.72638">
        <ele>63</ele>
        <time>2019-09-10T14:57:16Z</time>
      </trkpt>
      <trkpt lat="50.9135" lon="1.72551">
        <ele>59</ele>
        <time>2019-09-10T14:57:29Z</time>
      </trkpt>
      <trkpt lat="50.91361" lon="1.72513">
        <ele>58</ele>
        <time>2019-09-10T14:57:33Z</time>
      </trkpt>
      <trkpt lat="50.91408" lon="1.72509">
        <ele>59</ele>
        <time>2019-09-10T14:57:42Z</time>
      </trkpt>
      <trkpt lat="50.91413" lon="1.72566">
        <ele>60</ele>
        <time>2019-09-10T14:57:48Z</time>
      </trkpt>
      <trkpt lat="50.91422" lon="1.7264">
        <ele>63</ele>
        <time>2019-09-10T14:57:57Z</time>
      </trkpt>
      <trkpt lat="50.91438" lon="1.72791">
        <ele>67</ele>
        <time>2019-09-10T14:58:14Z</time>
      </trkpt>
      <trkpt lat="50.91444" lon="1.7283">
        <ele>68</ele>
        <time>2019-09-10T14:58:18Z</time>
      </trkpt>
      <trkpt lat="50.9148" lon="1.72992">
        <ele>71</ele>
        <time>2019-09-10T14:58:38Z</time>
      </trkpt>
      <trkpt lat="50.91498" lon="1.7311">
        <ele>73</ele>
        <time>2019-09-10T14:58:51Z</time>
      </trkpt>
      <trkpt lat="50.91501" lon="1.73156">
        <ele>74</ele>
        <time>2019-09-10T14:58:56Z</time>
      </trkpt>
      <trkpt lat="50.915" lon="1.73203">
        <ele>75</ele>
        <time>2019-09-10T14:59:02Z</time>
      </trkpt>
      <trkpt lat="50.91498" lon="1.73227">
        <ele>76</ele>
        <time>2019-09-10T14:59:04Z</time>
      </trkpt>
      <trkpt lat="50.91489" lon="1.73278">
        <ele>79</ele>
        <time>2019-09-10T14:59:10Z</time>
      </trkpt>
      <trkpt lat="50.9147" lon="1.73346">
        <ele>83</ele>
        <time>2019-09-10T14:59:19Z</time>
      </trkpt>
      <trkpt lat="50.91468" lon="1.73365">
        <ele>84</ele>
        <time>2019-09-10T14:59:21Z</time>
      </trkpt>
      <trkpt lat="50.91468" lon="1.73395">
        <ele>86</ele>
        <time>2019-09-10T14:59:24Z</time>
      </trkpt>
      <trkpt lat="50.91473" lon="1.73454">
        <ele>89</ele>
        <time>2019-09-10T14:59:31Z</time>
      </trkpt>
      <trkpt lat="50.91484" lon="1.73528">
        <ele>94</ele>
        <time>2019-09-10T14:59:39Z</time>
      </trkpt>
      <trkpt lat="50.91493" lon="1.7357">
        <ele>97</ele>
        <time>2019-09-10T14:59:44Z</time>
      </trkpt>
      <trkpt lat="50.91526" lon="1.73689">
        <ele>107</ele>
        <time>2019-09-10T14:59:59Z</time>
      </trkpt>
      <trkpt lat="50.91532" lon="1.73717">
        <ele>109</ele>
        <time>2019-09-10T15:00:02Z</time>
      </trkpt>
      <trkpt lat="50.91535" lon="1.73735">
        <ele>110</ele>
        <time>2019-09-10T15:00:04Z</time>
      </trkpt>
      <trkpt lat="50.91534" lon="1.73759">
        <ele>111</ele>
        <time>2019-09-10T15:00:07Z</time>
      </trkpt>
      <trkpt lat="50.91529" lon="1.73788">
        <ele>112</ele>
        <time>2019-09-10T15:00:10Z</time>
      </trkpt>
      <trkpt lat="50.91403" lon="1.74366">
        <ele>102</ele>
        <time>2019-09-10T15:01:19Z</time>
      </trkpt>
      <trkpt lat="50.9139" lon="1.74471">
        <ele>98</ele>
        <time>2019-09-10T15:01:31Z</time>
      </trkpt>
      <trkpt lat="50.91388" lon="1.7447">
        <ele>98</ele>
        <time>2019-09-10T15:01:31Z</time>
      </trkpt>
      <trkpt lat="50.9139" lon="1.74471">
        <ele>98</ele>
        <time>2019-09-10T15:01:32Z</time>
      </trkpt>
      <trkpt lat="50.91351" lon="1.74849">
        <ele>85</ele>
        <time>2019-09-10T15:02:15Z</time>
      </trkpt>
      <trkpt lat="50.91345" lon="1.74898">
        <ele>85</ele>
        <time>2019-09-10T15:02:20Z</time>
      </trkpt>
      <trkpt lat="50.9132" lon="1.75017">
        <ele>79</ele>
        <time>2019-09-10T15:02:34Z</time>
      </trkpt>
      <trkpt lat="50.91316" lon="1.75052">
        <ele>78</ele>
        <time>2019-09-10T15:02:38Z</time>
      </trkpt>
      <trkpt lat="50.91309" lon="1.75164">
        <ele>74</ele>
        <time>2019-09-10T15:02:51Z</time>
      </trkpt>
      <trkpt lat="50.9131" lon="1.75209">
        <ele>73</ele>
        <time>2019-09-10T15:02:56Z</time>
      </trkpt>
      <trkpt lat="50.91321" lon="1.75298">
        <ele>70</ele>
        <time>2019-09-10T15:03:06Z</time>
      </trkpt>
      <trkpt lat="50.91326" lon="1.75358">
        <ele>68</ele>
        <time>2019-09-10T15:03:13Z</time>
      </trkpt>
      <trkpt lat="50.91328" lon="1.75419">
        <ele>65</ele>
        <time>2019-09-10T15:03:20Z</time>
      </trkpt>
      <trkpt lat="50.91327" lon="1.75446">
        <ele>64</ele>
        <time>2019-09-10T15:03:23Z</time>
      </trkpt>
      <trkpt lat="50.91323" lon="1.75474">
        <ele>64</ele>
        <time>2019-09-10T15:03:26Z</time>
      </trkpt>
      <trkpt lat="50.91305" lon="1.75558">
        <ele>62</ele>
        <time>2019-09-10T15:03:36Z</time>
      </trkpt>
      <trkpt lat="50.91302" lon="1.75587">
        <ele>61</ele>
        <time>2019-09-10T15:03:39Z</time>
      </trkpt>
      <trkpt lat="50.91301" lon="1.7561">
        <ele>61</ele>
        <time>2019-09-10T15:03:42Z</time>
      </trkpt>
      <trkpt lat="50.91315" lon="1.75728">
        <ele>58</ele>
        <time>2019-09-10T15:03:55Z</time>
      </trkpt>
      <trkpt lat="50.91324" lon="1.75786">
        <ele>57</ele>
        <time>2019-09-10T15:04:02Z</time>
      </trkpt>
      <trkpt lat="50.91395" lon="1.76135">
        <ele>52</ele>
        <time>2019-09-10T15:04:43Z</time>
      </trkpt>
      <trkpt lat="50.91405" lon="1.7621">
        <ele>50</ele>
        <time>2019-09-10T15:04:52Z</time>
      </trkpt>
      <trkpt lat="50.91409" lon="1.76283">
        <ele>50</ele>
        <time>2019-09-10T15:05:00Z</time>
      </trkpt>
      <trkpt lat="50.91407" lon="1.76299">
        <ele>50</ele>
        <time>2019-09-10T15:05:02Z</time>
      </trkpt>
      <trkpt lat="50.91385" lon="1.763">
        <ele>52</ele>
        <time>2019-09-10T15:05:06Z</time>
      </trkpt>
      <trkpt lat="50.9135" lon="1.76324">
        <ele>54</ele>
        <time>2019-09-10T15:05:13Z</time>
      </trkpt>
      <trkpt lat="50.91337" lon="1.7633">
        <ele>55</ele>
        <time>2019-09-10T15:05:15Z</time>
      </trkpt>
      <trkpt lat="50.91285" lon="1.76339">
        <ele>58</ele>
        <time>2019-09-10T15:05:24Z</time>
      </trkpt>
      <trkpt lat="50.91259" lon="1.76347">
        <ele>59</ele>
        <time>2019-09-10T15:05:29Z</time>
      </trkpt>
      <trkpt lat="50.91136" lon="1.76408">
        <ele>67</ele>
        <time>2019-09-10T15:05:52Z</time>
      </trkpt>
      <trkpt lat="50.9066" lon="1.76722">
        <ele>55</ele>
        <time>2019-09-10T15:07:24Z</time>
      </trkpt>
      <trkpt lat="50.90605" lon="1.76754">
        <ele>59</ele>
        <time>2019-09-10T15:07:34Z</time>
      </trkpt>
      <trkpt lat="50.90428" lon="1.76839">
        <ele>67</ele>
        <time>2019-09-10T15:08:07Z</time>
      </trkpt>
      <trkpt lat="50.90411" lon="1.76849">
        <ele>66</ele>
        <time>2019-09-10T15:08:10Z</time>
      </trkpt>
      <trkpt lat="50.90359" lon="1.76883">
        <ele>63</ele>
        <time>2019-09-10T15:08:20Z</time>
      </trkpt>
      <trkpt lat="50.90289" lon="1.76943">
        <ele>59</ele>
        <time>2019-09-10T15:08:34Z</time>
      </trkpt>
      <trkpt lat="50.90201" lon="1.7704">
        <ele>58</ele>
        <time>2019-09-10T15:08:53Z</time>
      </trkpt>
      <trkpt lat="50.90153" lon="1.77087">
        <ele>59</ele>
        <time>2019-09-10T15:09:04Z</time>
      </trkpt>
      <trkpt lat="50.90137" lon="1.771">
        <ele>58</ele>
        <time>2019-09-10T15:09:07Z</time>
      </trkpt>
      <trkpt lat="50.90087" lon="1.7713">
        <ele>56</ele>
        <time>2019-09-10T15:09:16Z</time>
      </trkpt>
      <trkpt lat="50.90031" lon="1.77151">
        <ele>51</ele>
        <time>2019-09-10T15:09:26Z</time>
      </trkpt>
      <trkpt lat="50.89981" lon="1.77157">
        <ele>48</ele>
        <time>2019-09-10T15:09:35Z</time>
      </trkpt>
      <trkpt lat="50.89753" lon="1.77127">
        <ele>48</ele>
        <time>2019-09-10T15:10:16Z</time>
      </trkpt>
      <trkpt lat="50.89637" lon="1.77118">
        <ele>55</ele>
        <time>2019-09-10T15:10:37Z</time>
      </trkpt>
      <trkpt lat="50.89593" lon="1.77112">
        <ele>59</ele>
        <time>2019-09-10T15:10:45Z</time>
      </trkpt>
      <trkpt lat="50.89565" lon="1.77106">
        <ele>62</ele>
        <time>2019-09-10T15:10:50Z</time>
      </trkpt>
      <trkpt lat="50.89505" lon="1.77078">
        <ele>70</ele>
        <time>2019-09-10T15:11:01Z</time>
      </trkpt>
      <trkpt lat="50.89483" lon="1.77087">
        <ele>72</ele>
        <time>2019-09-10T15:11:05Z</time>
      </trkpt>
      <trkpt lat="50.89431" lon="1.77122">
        <ele>77</ele>
        <time>2019-09-10T15:11:15Z</time>
      </trkpt>
      <trkpt lat="50.89364" lon="1.77179">
        <ele>83</ele>
        <time>2019-09-10T15:11:28Z</time>
      </trkpt>
      <trkpt lat="50.89284" lon="1.77263">
        <ele>84</ele>
        <time>2019-09-10T15:11:45Z</time>
      </trkpt>
      <trkpt lat="50.89255" lon="1.7727">
        <ele>84</ele>
        <time>2019-09-10T15:11:51Z</time>
      </trkpt>
      <trkpt lat="50.89255" lon="1.77273">
        <ele>84</ele>
        <time>2019-09-10T15:11:51Z</time>
      </trkpt>
      <trkpt lat="50.89255" lon="1.7727">
        <ele>84</ele>
        <time>2019-09-10T15:11:51Z</time>
      </trkpt>
      <trkpt lat="50.89243" lon="1.7727">
        <ele>84</ele>
        <time>2019-09-10T15:11:54Z</time>
      </trkpt>
      <trkpt lat="50.89145" lon="1.77274">
        <ele>81</ele>
        <time>2019-09-10T15:12:11Z</time>
      </trkpt>
      <trkpt lat="50.89018" lon="1.77379">
        <ele>70</ele>
        <time>2019-09-10T15:12:36Z</time>
      </trkpt>
      <trkpt lat="50.8896" lon="1.77433">
        <ele>67</ele>
        <time>2019-09-10T15:12:48Z</time>
      </trkpt>
      <trkpt lat="50.88952" lon="1.77438">
        <ele>66</ele>
        <time>2019-09-10T15:12:50Z</time>
      </trkpt>
      <trkpt lat="50.88944" lon="1.77438">
        <ele>66</ele>
        <time>2019-09-10T15:12:51Z</time>
      </trkpt>
      <trkpt lat="50.88923" lon="1.77434">
        <ele>66</ele>
        <time>2019-09-10T15:12:55Z</time>
      </trkpt>
      <trkpt lat="50.88904" lon="1.77425">
        <ele>67</ele>
        <time>2019-09-10T15:12:59Z</time>
      </trkpt>
      <trkpt lat="50.88886" lon="1.77408">
        <ele>68</ele>
        <time>2019-09-10T15:13:02Z</time>
      </trkpt>
      <trkpt lat="50.88836" lon="1.77319">
        <ele>69</ele>
        <time>2019-09-10T15:13:16Z</time>
      </trkpt>
      <trkpt lat="50.88819" lon="1.77295">
        <ele>71</ele>
        <time>2019-09-10T15:13:20Z</time>
      </trkpt>
      <trkpt lat="50.88806" lon="1.77281">
        <ele>72</ele>
        <time>2019-09-10T15:13:23Z</time>
      </trkpt>
      <trkpt lat="50.88789" lon="1.77274">
        <ele>73</ele>
        <time>2019-09-10T15:13:26Z</time>
      </trkpt>
      <trkpt lat="50.8865" lon="1.77092">
        <ele>77</ele>
        <time>2019-09-10T15:13:58Z</time>
      </trkpt>
      <trkpt lat="50.88618" lon="1.77046">
        <ele>81</ele>
        <time>2019-09-10T15:14:05Z</time>
      </trkpt>
      <trkpt lat="50.88508" lon="1.76924">
        <ele>88</ele>
        <time>2019-09-10T15:14:29Z</time>
      </trkpt>
      <trkpt lat="50.88443" lon="1.76865">
        <ele>88</ele>
        <time>2019-09-10T15:14:43Z</time>
      </trkpt>
      <trkpt lat="50.88394" lon="1.76832">
        <ele>89</ele>
        <time>2019-09-10T15:14:52Z</time>
      </trkpt>
      <trkpt lat="50.88346" lon="1.76781">
        <ele>91</ele>
        <time>2019-09-10T15:15:02Z</time>
      </trkpt>
      <trkpt lat="50.88251" lon="1.76664">
        <ele>95</ele>
        <time>2019-09-10T15:15:24Z</time>
      </trkpt>
      <trkpt lat="50.88095" lon="1.76455">
        <ele>105</ele>
        <time>2019-09-10T15:16:00Z</time>
      </trkpt>
      <trkpt lat="50.88058" lon="1.76416">
        <ele>107</ele>
        <time>2019-09-10T15:16:08Z</time>
      </trkpt>
      <trkpt lat="50.87951" lon="1.76252">
        <ele>113</ele>
        <time>2019-09-10T15:16:35Z</time>
      </trkpt>
      <trkpt lat="50.87875" lon="1.76147">
        <ele>118</ele>
        <time>2019-09-10T15:16:53Z</time>
      </trkpt>
      <trkpt lat="50.87863" lon="1.76122">
        <ele>118</ele>
        <time>2019-09-10T15:16:56Z</time>
      </trkpt>
      <trkpt lat="50.87849" lon="1.76086">
        <ele>119</ele>
        <time>2019-09-10T15:17:01Z</time>
      </trkpt>
      <trkpt lat="50.87831" lon="1.76012">
        <ele>121</ele>
        <time>2019-09-10T15:17:10Z</time>
      </trkpt>
      <trkpt lat="50.87826" lon="1.76015">
        <ele>121</ele>
        <time>2019-09-10T15:17:11Z</time>
      </trkpt>
      <trkpt lat="50.87788" lon="1.7607">
        <ele>121</ele>
        <time>2019-09-10T15:17:20Z</time>
      </trkpt>
      <trkpt lat="50.87778" lon="1.76079">
        <ele>121</ele>
        <time>2019-09-10T15:17:22Z</time>
      </trkpt>
      <trkpt lat="50.87774" lon="1.76077">
        <ele>121</ele>
        <time>2019-09-10T15:17:23Z</time>
      </trkpt>
      <trkpt lat="50.87774" lon="1.76055">
        <ele>122</ele>
        <time>2019-09-10T15:17:25Z</time>
      </trkpt>
      <trkpt lat="50.87772" lon="1.76006">
        <ele>122</ele>
        <time>2019-09-10T15:17:31Z</time>
      </trkpt>
      <trkpt lat="50.87763" lon="1.75898">
        <ele>124</ele>
        <time>2019-09-10T15:17:43Z</time>
      </trkpt>
      <trkpt lat="50.87703" lon="1.75534">
        <ele>120</ele>
        <time>2019-09-10T15:18:25Z</time>
      </trkpt>
      <trkpt lat="50.87693" lon="1.75482">
        <ele>120</ele>
        <time>2019-09-10T15:18:31Z</time>
      </trkpt>
      <trkpt lat="50.87676" lon="1.7541">
        <ele>120</ele>
        <time>2019-09-10T15:18:40Z</time>
      </trkpt>
      <trkpt lat="50.87659" lon="1.75321">
        <ele>118</ele>
        <time>2019-09-10T15:18:50Z</time>
      </trkpt>
      <trkpt lat="50.87615" lon="1.75161">
        <ele>116</ele>
        <time>2019-09-10T15:19:10Z</time>
      </trkpt>
      <trkpt lat="50.87601" lon="1.75104">
        <ele>116</ele>
        <time>2019-09-10T15:19:17Z</time>
      </trkpt>
      <trkpt lat="50.8759" lon="1.75039">
        <ele>116</ele>
        <time>2019-09-10T15:19:24Z</time>
      </trkpt>
      <trkpt lat="50.87581" lon="1.74981">
        <ele>116</ele>
        <time>2019-09-10T15:19:31Z</time>
      </trkpt>
      <trkpt lat="50.87561" lon="1.74811">
        <ele>115</ele>
        <time>2019-09-10T15:19:50Z</time>
      </trkpt>
      <trkpt lat="50.87556" lon="1.74689">
        <ele>116</ele>
        <time>2019-09-10T15:20:04Z</time>
      </trkpt>
      <trkpt lat="50.8754" lon="1.74477">
        <ele>118</ele>
        <time>2019-09-10T15:20:28Z</time>
      </trkpt>
      <trkpt lat="50.87543" lon="1.74475">
        <ele>118</ele>
        <time>2019-09-10T15:20:29Z</time>
      </trkpt>
      <trkpt lat="50.87545" lon="1.74469">
        <ele>118</ele>
        <time>2019-09-10T15:20:29Z</time>
      </trkpt>
      <trkpt lat="50.87543" lon="1.74462">
        <ele>118</ele>
        <time>2019-09-10T15:20:30Z</time>
      </trkpt>
      <trkpt lat="50.87541" lon="1.74461">
        <ele>118</ele>
        <time>2019-09-10T15:20:31Z</time>
      </trkpt>
      <trkpt lat="50.87539" lon="1.7446">
        <ele>118</ele>
        <time>2019-09-10T15:20:31Z</time>
      </trkpt>
      <trkpt lat="50.87535" lon="1.74464">
        <ele>118</ele>
        <time>2019-09-10T15:20:32Z</time>
      </trkpt>
      <trkpt lat="50.87534" lon="1.74468">
        <ele>118</ele>
        <time>2019-09-10T15:20:32Z</time>
      </trkpt>
      <trkpt lat="50.87529" lon="1.74467">
        <ele>118</ele>
        <time>2019-09-10T15:20:33Z</time>
      </trkpt>
      <trkpt lat="50.87461" lon="1.74433">
        <ele>115</ele>
        <time>2019-09-10T15:20:46Z</time>
      </trkpt>
      <trkpt lat="50.87456" lon="1.74448">
        <ele>115</ele>
        <time>2019-09-10T15:20:48Z</time>
      </trkpt>
      <trkpt lat="50.87416" lon="1.74552">
        <ele>112</ele>
        <time>2019-09-10T15:21:02Z</time>
      </trkpt>
      <trkpt lat="50.87413" lon="1.74558">
        <ele>111</ele>
        <time>2019-09-10T15:21:02Z</time>
      </trkpt>
      <trkpt lat="50.87401" lon="1.7457">
        <ele>111</ele>
        <time>2019-09-10T15:21:05Z</time>
      </trkpt>
      <trkpt lat="50.87353" lon="1.74604">
        <ele>109</ele>
        <time>2019-09-10T15:21:14Z</time>
      </trkpt>
      <trkpt lat="50.87178" lon="1.74699">
        <ele>111</ele>
        <time>2019-09-10T15:21:47Z</time>
      </trkpt>
      <trkpt lat="50.87124" lon="1.74733">
        <ele>112</ele>
        <time>2019-09-10T15:21:58Z</time>
      </trkpt>
      <trkpt lat="50.87034" lon="1.7481">
        <ele>113</ele>
        <time>2019-09-10T15:22:16Z</time>
      </trkpt>
      <trkpt lat="50.87025" lon="1.74821">
        <ele>113</ele>
        <time>2019-09-10T15:22:18Z</time>
      </trkpt>
      <trkpt lat="50.87003" lon="1.74855">
        <ele>113</ele>
        <time>2019-09-10T15:22:23Z</time>
      </trkpt>
      <trkpt lat="50.86984" lon="1.74871">
        <ele>114</ele>
        <time>2019-09-10T15:22:27Z</time>
      </trkpt>
      <trkpt lat="50.86967" lon="1.74875">
        <ele>114</ele>
        <time>2019-09-10T15:22:30Z</time>
      </trkpt>
      <trkpt lat="50.86948" lon="1.74874">
        <ele>114</ele>
        <time>2019-09-10T15:22:33Z</time>
      </trkpt>
      <trkpt lat="50.86935" lon="1.74871">
        <ele>114</ele>
        <time>2019-09-10T15:22:36Z</time>
      </trkpt>
      <trkpt lat="50.86902" lon="1.74892">
        <ele>114</ele>
        <time>2019-09-10T15:22:42Z</time>
      </trkpt>
      <trkpt lat="50.86845" lon="1.74954">
        <ele>114</ele>
        <time>2019-09-10T15:22:54Z</time>
      </trkpt>
      <trkpt lat="50.86716" lon="1.75072">
        <ele>117</ele>
        <time>2019-09-10T15:23:21Z</time>
      </trkpt>
      <trkpt lat="50.86681" lon="1.75095">
        <ele>118</ele>
        <time>2019-09-10T15:23:28Z</time>
      </trkpt>
      <trkpt lat="50.86621" lon="1.7511">
        <ele>119</ele>
        <time>2019-09-10T15:23:38Z</time>
      </trkpt>
      <trkpt lat="50.86574" lon="1.75087">
        <ele>120</ele>
        <time>2019-09-10T15:23:47Z</time>
      </trkpt>
      <trkpt lat="50.86527" lon="1.75088">
        <ele>121</ele>
        <time>2019-09-10T15:23:56Z</time>
      </trkpt>
      <trkpt lat="50.86472" lon="1.75144">
        <ele>121</ele>
        <time>2019-09-10T15:24:07Z</time>
      </trkpt>
      <trkpt lat="50.86338" lon="1.75268">
        <ele>127</ele>
        <time>2019-09-10T15:24:35Z</time>
      </trkpt>
      <trkpt lat="50.86276" lon="1.75338">
        <ele>130</ele>
        <time>2019-09-10T15:24:48Z</time>
      </trkpt>
      <trkpt lat="50.8623" lon="1.75393">
        <ele>131</ele>
        <time>2019-09-10T15:24:59Z</time>
      </trkpt>
      <trkpt lat="50.86178" lon="1.7545">
        <ele>130</ele>
        <time>2019-09-10T15:25:10Z</time>
      </trkpt>
      <trkpt lat="50.86089" lon="1.75562">
        <ele>131</ele>
        <time>2019-09-10T15:25:30Z</time>
      </trkpt>
      <trkpt lat="50.85954" lon="1.75722">
        <ele>127</ele>
        <time>2019-09-10T15:26:00Z</time>
      </trkpt>
      <trkpt lat="50.85808" lon="1.75904">
        <ele>117</ele>
        <time>2019-09-10T15:26:33Z</time>
      </trkpt>
      <trkpt lat="50.8568" lon="1.7612">
        <ele>114</ele>
        <time>2019-09-10T15:27:06Z</time>
      </trkpt>
      <trkpt lat="50.85654" lon="1.7617">
        <ele>117</ele>
        <time>2019-09-10T15:27:14Z</time>
      </trkpt>
      <trkpt lat="50.85639" lon="1.76203">
        <ele>119</ele>
        <time>2019-09-10T15:27:18Z</time>
      </trkpt>
      <trkpt lat="50.85628" lon="1.76245">
        <ele>121</ele>
        <time>2019-09-10T15:27:23Z</time>
      </trkpt>
      <trkpt lat="50.85604" lon="1.76279">
        <ele>122</ele>
        <time>2019-09-10T15:27:29Z</time>
      </trkpt>
      <trkpt lat="50.85581" lon="1.76308">
        <ele>123</ele>
        <time>2019-09-10T15:27:34Z</time>
      </trkpt>
      <trkpt lat="50.85562" lon="1.76311">
        <ele>124</ele>
        <time>2019-09-10T15:27:38Z</time>
      </trkpt>
      <trkpt lat="50.85474" lon="1.76255">
        <ele>131</ele>
        <time>2019-09-10T15:27:55Z</time>
      </trkpt>
      <trkpt lat="50.8538" lon="1.76207">
        <ele>133</ele>
        <time>2019-09-10T15:28:12Z</time>
      </trkpt>
      <trkpt lat="50.85356" lon="1.76197">
        <ele>133</ele>
        <time>2019-09-10T15:28:17Z</time>
      </trkpt>
      <trkpt lat="50.85329" lon="1.76183">
        <ele>132</ele>
        <time>2019-09-10T15:28:22Z</time>
      </trkpt>
      <trkpt lat="50.85299" lon="1.76155">
        <ele>128</ele>
        <time>2019-09-10T15:28:28Z</time>
      </trkpt>
      <trkpt lat="50.85269" lon="1.76133">
        <ele>124</ele>
        <time>2019-09-10T15:28:34Z</time>
      </trkpt>
      <trkpt lat="50.85232" lon="1.76117">
        <ele>120</ele>
        <time>2019-09-10T15:28:41Z</time>
      </trkpt>
      <trkpt lat="50.85179" lon="1.76107">
        <ele>114</ele>
        <time>2019-09-10T15:28:50Z</time>
      </trkpt>
      <trkpt lat="50.85135" lon="1.76122">
        <ele>110</ele>
        <time>2019-09-10T15:28:58Z</time>
      </trkpt>
      <trkpt lat="50.85098" lon="1.76138">
        <ele>108</ele>
        <time>2019-09-10T15:29:05Z</time>
      </trkpt>
      <trkpt lat="50.85091" lon="1.76136">
        <ele>107</ele>
        <time>2019-09-10T15:29:06Z</time>
      </trkpt>
      <trkpt lat="50.85096" lon="1.761">
        <ele>107</ele>
        <time>2019-09-10T15:29:10Z</time>
      </trkpt>
      <trkpt lat="50.85102" lon="1.7598">
        <ele>106</ele>
        <time>2019-09-10T15:29:24Z</time>
      </trkpt>
      <trkpt lat="50.85104" lon="1.75907">
        <ele>104</ele>
        <time>2019-09-10T15:29:32Z</time>
      </trkpt>
      <trkpt lat="50.85085" lon="1.75689">
        <ele>99</ele>
        <time>2019-09-10T15:29:57Z</time>
      </trkpt>
      <trkpt lat="50.85082" lon="1.75629">
        <ele>97</ele>
        <time>2019-09-10T15:30:04Z</time>
      </trkpt>
      <trkpt lat="50.8508" lon="1.75479">
        <ele>95</ele>
        <time>2019-09-10T15:30:20Z</time>
      </trkpt>
      <trkpt lat="50.85084" lon="1.75281">
        <ele>97</ele>
        <time>2019-09-10T15:30:43Z</time>
      </trkpt>
      <trkpt lat="50.85098" lon="1.75125">
        <ele>96</ele>
        <time>2019-09-10T15:31:00Z</time>
      </trkpt>
      <trkpt lat="50.85098" lon="1.75112">
        <ele>96</ele>
        <time>2019-09-10T15:31:02Z</time>
      </trkpt>
      <trkpt lat="50.85104" lon="1.75068">
        <ele>96</ele>
        <time>2019-09-10T15:31:07Z</time>
      </trkpt>
      <trkpt lat="50.85101" lon="1.75016">
        <ele>97</ele>
        <time>2019-09-10T15:31:13Z</time>
      </trkpt>
      <trkpt lat="50.85085" lon="1.7483">
        <ele>99</ele>
        <time>2019-09-10T15:31:34Z</time>
      </trkpt>
      <trkpt lat="50.85087" lon="1.74767">
        <ele>99</ele>
        <time>2019-09-10T15:31:41Z</time>
      </trkpt>
      <trkpt lat="50.85096" lon="1.74692">
        <ele>101</ele>
        <time>2019-09-10T15:31:49Z</time>
      </trkpt>
      <trkpt lat="50.85102" lon="1.74629">
        <ele>101</ele>
        <time>2019-09-10T15:31:57Z</time>
      </trkpt>
      <trkpt lat="50.85127" lon="1.74561">
        <ele>101</ele>
        <time>2019-09-10T15:32:05Z</time>
      </trkpt>
      <trkpt lat="50.85168" lon="1.74461">
        <ele>102</ele>
        <time>2019-09-10T15:32:19Z</time>
      </trkpt>
      <trkpt lat="50.85209" lon="1.74337">
        <ele>101</ele>
        <time>2019-09-10T15:32:35Z</time>
      </trkpt>
      <trkpt lat="50.85235" lon="1.74272">
        <ele>102</ele>
        <time>2019-09-10T15:32:43Z</time>
      </trkpt>
      <trkpt lat="50.8525" lon="1.7424">
        <ele>103</ele>
        <time>2019-09-10T15:32:48Z</time>
      </trkpt>
      <trkpt lat="50.85263" lon="1.74222">
        <ele>103</ele>
        <time>2019-09-10T15:32:51Z</time>
      </trkpt>
      <trkpt lat="50.85275" lon="1.74184">
        <ele>104</ele>
        <time>2019-09-10T15:32:56Z</time>
      </trkpt>
      <trkpt lat="50.85303" lon="1.74079">
        <ele>102</ele>
        <time>2019-09-10T15:33:08Z</time>
      </trkpt>
      <trkpt lat="50.85317" lon="1.73974">
        <ele>101</ele>
        <time>2019-09-10T15:33:20Z</time>
      </trkpt>
      <trkpt lat="50.85327" lon="1.73868">
        <ele>99</ele>
        <time>2019-09-10T15:33:32Z</time>
      </trkpt>
      <trkpt lat="50.85349" lon="1.7376">
        <ele>97</ele>
        <time>2019-09-10T15:33:45Z</time>
      </trkpt>
      <trkpt lat="50.85352" lon="1.73736">
        <ele>97</ele>
        <time>2019-09-10T15:33:48Z</time>
      </trkpt>
      <trkpt lat="50.8536" lon="1.73704">
        <ele>96</ele>
        <time>2019-09-10T15:33:52Z</time>
      </trkpt>
      <trkpt lat="50.85415" lon="1.73416">
        <ele>90</ele>
        <time>2019-09-10T15:34:26Z</time>
      </trkpt>
      <trkpt lat="50.85433" lon="1.73363">
        <ele>90</ele>
        <time>2019-09-10T15:34:32Z</time>
      </trkpt>
      <trkpt lat="50.85476" lon="1.73287">
        <ele>93</ele>
        <time>2019-09-10T15:34:44Z</time>
      </trkpt>
      <trkpt lat="50.85488" lon="1.73257">
        <ele>95</ele>
        <time>2019-09-10T15:34:48Z</time>
      </trkpt>
      <trkpt lat="50.85497" lon="1.73208">
        <ele>97</ele>
        <time>2019-09-10T15:34:54Z</time>
      </trkpt>
      <trkpt lat="50.85498" lon="1.7318">
        <ele>98</ele>
        <time>2019-09-10T15:34:57Z</time>
      </trkpt>
      <trkpt lat="50.85493" lon="1.73141">
        <ele>100</ele>
        <time>2019-09-10T15:35:01Z</time>
      </trkpt>
      <trkpt lat="50.85467" lon="1.73087">
        <ele>101</ele>
        <time>2019-09-10T15:35:09Z</time>
      </trkpt>
      <trkpt lat="50.85406" lon="1.72978">
        <ele>103</ele>
        <time>2019-09-10T15:35:25Z</time>
      </trkpt>
      <trkpt lat="50.85383" lon="1.7292">
        <ele>103</ele>
        <time>2019-09-10T15:35:33Z</time>
      </trkpt>
      <trkpt lat="50.85377" lon="1.7289">
        <ele>103</ele>
        <time>2019-09-10T15:35:36Z</time>
      </trkpt>
      <trkpt lat="50.85376" lon="1.72877">
        <ele>104</ele>
        <time>2019-09-10T15:35:38Z</time>
      </trkpt>
      <trkpt lat="50.85378" lon="1.72851">
        <ele>105</ele>
        <time>2019-09-10T15:35:41Z</time>
      </trkpt>
      <trkpt lat="50.85384" lon="1.72815">
        <ele>107</ele>
        <time>2019-09-10T15:35:45Z</time>
      </trkpt>
      <trkpt lat="50.85387" lon="1.72777">
        <ele>107</ele>
        <time>2019-09-10T15:35:49Z</time>
      </trkpt>
      <trkpt lat="50.85384" lon="1.72752">
        <ele>108</ele>
        <time>2019-09-10T15:35:52Z</time>
      </trkpt>
      <trkpt lat="50.85379" lon="1.72733">
        <ele>107</ele>
        <time>2019-09-10T15:35:54Z</time>
      </trkpt>
      <trkpt lat="50.85364" lon="1.727">
        <ele>107</ele>
        <time>2019-09-10T15:35:59Z</time>
      </trkpt>
      <trkpt lat="50.85358" lon="1.7263">
        <ele>107</ele>
        <time>2019-09-10T15:36:07Z</time>
      </trkpt>
      <trkpt lat="50.85369" lon="1.72555">
        <ele>106</ele>
        <time>2019-09-10T15:36:16Z</time>
      </trkpt>
      <trkpt lat="50.8537" lon="1.72531">
        <ele>106</ele>
        <time>2019-09-10T15:36:18Z</time>
      </trkpt>
      <trkpt lat="50.85353" lon="1.72506">
        <ele>106</ele>
        <time>2019-09-10T15:36:22Z</time>
      </trkpt>
      <trkpt lat="50.8531" lon="1.72475">
        <ele>105</ele>
        <time>2019-09-10T15:36:31Z</time>
      </trkpt>
      <trkpt lat="50.85177" lon="1.72362">
        <ele>96</ele>
        <time>2019-09-10T15:36:58Z</time>
      </trkpt>
      <trkpt lat="50.851" lon="1.72275">
        <ele>90</ele>
        <time>2019-09-10T15:37:15Z</time>
      </trkpt>
      <trkpt lat="50.85044" lon="1.72185">
        <ele>87</ele>
        <time>2019-09-10T15:37:29Z</time>
      </trkpt>
      <trkpt lat="50.84953" lon="1.71998">
        <ele>83</ele>
        <time>2019-09-10T15:37:55Z</time>
      </trkpt>
      <trkpt lat="50.84857" lon="1.71687">
        <ele>77</ele>
        <time>2019-09-10T15:38:34Z</time>
      </trkpt>
      <trkpt lat="50.84823" lon="1.71506">
        <ele>78</ele>
        <time>2019-09-10T15:38:55Z</time>
      </trkpt>
      <trkpt lat="50.84767" lon="1.71176">
        <ele>77</ele>
        <time>2019-09-10T15:39:34Z</time>
      </trkpt>
      <trkpt lat="50.8472" lon="1.71061">
        <ele>74</ele>
        <time>2019-09-10T15:39:49Z</time>
      </trkpt>
      <trkpt lat="50.84656" lon="1.70936">
        <ele>69</ele>
        <time>2019-09-10T15:40:07Z</time>
      </trkpt>
      <trkpt lat="50.8464" lon="1.709">
        <ele>68</ele>
        <time>2019-09-10T15:40:12Z</time>
      </trkpt>
      <trkpt lat="50.84583" lon="1.70728">
        <ele>62</ele>
        <time>2019-09-10T15:40:34Z</time>
      </trkpt>
      <trkpt lat="50.8456" lon="1.70611">
        <ele>59</ele>
        <time>2019-09-10T15:40:48Z</time>
      </trkpt>
      <trkpt lat="50.8454" lon="1.70523">
        <ele>56</ele>
        <time>2019-09-10T15:40:58Z</time>
      </trkpt>
      <trkpt lat="50.84533" lon="1.70454">
        <ele>53</ele>
        <time>2019-09-10T15:41:06Z</time>
      </trkpt>
      <trkpt lat="50.84527" lon="1.70431">
        <ele>52</ele>
        <time>2019-09-10T15:41:09Z</time>
      </trkpt>
      <trkpt lat="50.84507" lon="1.7037">
        <ele>50</ele>
        <time>2019-09-10T15:41:17Z</time>
      </trkpt>
      <trkpt lat="50.84463" lon="1.70287">
        <ele>47</ele>
        <time>2019-09-10T15:41:29Z</time>
      </trkpt>
      <trkpt lat="50.84435" lon="1.70241">
        <ele>46</ele>
        <time>2019-09-10T15:41:36Z</time>
      </trkpt>
      <trkpt lat="50.84412" lon="1.70196">
        <ele>44</ele>
        <time>2019-09-10T15:41:42Z</time>
      </trkpt>
      <trkpt lat="50.84396" lon="1.70145">
        <ele>43</ele>
        <time>2019-09-10T15:41:49Z</time>
      </trkpt>
      <trkpt lat="50.84369" lon="1.70086">
        <ele>42</ele>
        <time>2019-09-10T15:41:57Z</time>
      </trkpt>
      <trkpt lat="50.84346" lon="1.70023">
        <ele>42</ele>
        <time>2019-09-10T15:42:05Z</time>
      </trkpt>
      <trkpt lat="50.84306" lon="1.69961">
        <ele>41</ele>
        <time>2019-09-10T15:42:15Z</time>
      </trkpt>
      <trkpt lat="50.84253" lon="1.69899">
        <ele>39</ele>
        <time>2019-09-10T15:42:27Z</time>
      </trkpt>
      <trkpt lat="50.84231" lon="1.69863">
        <ele>37</ele>
        <time>2019-09-10T15:42:33Z</time>
      </trkpt>
      <trkpt lat="50.84212" lon="1.69797">
        <ele>35</ele>
        <time>2019-09-10T15:42:41Z</time>
      </trkpt>
      <trkpt lat="50.84201" lon="1.69747">
        <ele>35</ele>
        <time>2019-09-10T15:42:47Z</time>
      </trkpt>
      <trkpt lat="50.8418" lon="1.69707">
        <ele>34</ele>
        <time>2019-09-10T15:42:52Z</time>
      </trkpt>
      <trkpt lat="50.84152" lon="1.69639">
        <ele>32</ele>
        <time>2019-09-10T15:43:02Z</time>
      </trkpt>
      <trkpt lat="50.84135" lon="1.69575">
        <ele>31</ele>
        <time>2019-09-10T15:43:09Z</time>
      </trkpt>
      <trkpt lat="50.84116" lon="1.69538">
        <ele>30</ele>
        <time>2019-09-10T15:43:15Z</time>
      </trkpt>
      <trkpt lat="50.84093" lon="1.69512">
        <ele>29</ele>
        <time>2019-09-10T15:43:20Z</time>
      </trkpt>
      <trkpt lat="50.84084" lon="1.69493">
        <ele>28</ele>
        <time>2019-09-10T15:43:22Z</time>
      </trkpt>
      <trkpt lat="50.84061" lon="1.69424">
        <ele>27</ele>
        <time>2019-09-10T15:43:31Z</time>
      </trkpt>
      <trkpt lat="50.84053" lon="1.6941">
        <ele>27</ele>
        <time>2019-09-10T15:43:33Z</time>
      </trkpt>
      <trkpt lat="50.84038" lon="1.69397">
        <ele>26</ele>
        <time>2019-09-10T15:43:36Z</time>
      </trkpt>
      <trkpt lat="50.8404" lon="1.69396">
        <ele>27</ele>
        <time>2019-09-10T15:43:37Z</time>
      </trkpt>
      <trkpt lat="50.83993" lon="1.69438">
        <ele>25</ele>
        <time>2019-09-10T15:43:46Z</time>
      </trkpt>
      <trkpt lat="50.83974" lon="1.6945">
        <ele>24</ele>
        <time>2019-09-10T15:43:50Z</time>
      </trkpt>
      <trkpt lat="50.83969" lon="1.69447">
        <ele>24</ele>
        <time>2019-09-10T15:43:51Z</time>
      </trkpt>
      <trkpt lat="50.83972" lon="1.69419">
        <ele>24</ele>
        <time>2019-09-10T15:43:54Z</time>
      </trkpt>
      <trkpt lat="50.83971" lon="1.69396">
        <ele>24</ele>
        <time>2019-09-10T15:43:57Z</time>
      </trkpt>
      <trkpt lat="50.83967" lon="1.69377">
        <ele>24</ele>
        <time>2019-09-10T15:43:59Z</time>
      </trkpt>
      <trkpt lat="50.83956" lon="1.69354">
        <ele>25</ele>
        <time>2019-09-10T15:44:02Z</time>
      </trkpt>
      <trkpt lat="50.83918" lon="1.69289">
        <ele>25</ele>
        <time>2019-09-10T15:44:12Z</time>
      </trkpt>
      <trkpt lat="50.83913" lon="1.69275">
        <ele>25</ele>
        <time>2019-09-10T15:44:14Z</time>
      </trkpt>
      <trkpt lat="50.83912" lon="1.69263">
        <ele>25</ele>
        <time>2019-09-10T15:44:15Z</time>
      </trkpt>
      <trkpt lat="50.83914" lon="1.6925">
        <ele>25</ele>
        <time>2019-09-10T15:44:17Z</time>
      </trkpt>
      <trkpt lat="50.83937" lon="1.69208">
        <ele>26</ele>
        <time>2019-09-10T15:44:23Z</time>
      </trkpt>
      <trkpt lat="50.83938" lon="1.69197">
        <ele>26</ele>
        <time>2019-09-10T15:44:24Z</time>
      </trkpt>
      <trkpt lat="50.83936" lon="1.69187">
        <ele>26</ele>
        <time>2019-09-10T15:44:26Z</time>
      </trkpt>
      <trkpt lat="50.83872" lon="1.69036">
        <ele>25</ele>
        <time>2019-09-10T15:44:46Z</time>
      </trkpt>
      <trkpt lat="50.83858" lon="1.69013">
        <ele>25</ele>
        <time>2019-09-10T15:44:50Z</time>
      </trkpt>
      <trkpt lat="50.8366" lon="1.68762">
        <ele>18</ele>
        <time>2019-09-10T15:45:35Z</time>
      </trkpt>
      <trkpt lat="50.83644" lon="1.68744">
        <ele>18</ele>
        <time>2019-09-10T15:45:38Z</time>
      </trkpt>
      <trkpt lat="50.83589" lon="1.68695">
        <ele>15</ele>
        <time>2019-09-10T15:45:49Z</time>
      </trkpt>
      <trkpt lat="50.83553" lon="1.68665">
        <ele>14</ele>
        <time>2019-09-10T15:45:57Z</time>
      </trkpt>
      <trkpt lat="50.83514" lon="1.68643">
        <ele>14</ele>
        <time>2019-09-10T15:46:04Z</time>
      </trkpt>
      <trkpt lat="50.83512" lon="1.68631">
        <ele>14</ele>
        <time>2019-09-10T15:46:05Z</time>
      </trkpt>
      <trkpt lat="50.83685" lon="1.6862">
        <ele>13</ele>
        <time>2019-09-10T15:46:36Z</time>
      </trkpt>
      <trkpt lat="50.83696" lon="1.68616">
        <ele>13</ele>
        <time>2019-09-10T15:46:38Z</time>
      </trkpt>
      <trkpt lat="50.83757" lon="1.6858">
        <ele>13</ele>
        <time>2019-09-10T15:46:50Z</time>
      </trkpt>
      <trkpt lat="50.83817" lon="1.68539">
        <ele>13</ele>
        <time>2019-09-10T15:47:01Z</time>
      </trkpt>
      <trkpt lat="50.83871" lon="1.68495">
        <ele>14</ele>
        <time>2019-09-10T15:47:12Z</time>
      </trkpt>
      <trkpt lat="50.83977" lon="1.68405">
        <ele>13</ele>
        <time>2019-09-10T15:47:34Z</time>
      </trkpt>
      <trkpt lat="50.84003" lon="1.68389">
        <ele>13</ele>
        <time>2019-09-10T15:47:39Z</time>
      </trkpt>
      <trkpt lat="50.84028" lon="1.68386">
        <ele>13</ele>
        <time>2019-09-10T15:47:43Z</time>
      </trkpt>
      <trkpt lat="50.84068" lon="1.68396">
        <ele>14</ele>
        <time>2019-09-10T15:47:50Z</time>
      </trkpt>
      <trkpt lat="50.84134" lon="1.68417">
        <ele>15</ele>
        <time>2019-09-10T15:48:02Z</time>
      </trkpt>
      <trkpt lat="50.84156" lon="1.6842">
        <ele>16</ele>
        <time>2019-09-10T15:48:06Z</time>
      </trkpt>
      <trkpt lat="50.84174" lon="1.6842">
        <ele>16</ele>
        <time>2019-09-10T15:48:09Z</time>
      </trkpt>
      <trkpt lat="50.84193" lon="1.68414">
        <ele>17</ele>
        <time>2019-09-10T15:48:13Z</time>
      </trkpt>
      <trkpt lat="50.84232" lon="1.68397">
        <ele>17</ele>
        <time>2019-09-10T15:48:20Z</time>
      </trkpt>
      <trkpt lat="50.84264" lon="1.68355">
        <ele>18</ele>
        <time>2019-09-10T15:48:27Z</time>
      </trkpt>
      <trkpt lat="50.84346" lon="1.68203">
        <ele>19</ele>
        <time>2019-09-10T15:48:50Z</time>
      </trkpt>
      <trkpt lat="50.84398" lon="1.68132">
        <ele>19</ele>
        <time>2019-09-10T15:49:02Z</time>
      </trkpt>
      <trkpt lat="50.84426" lon="1.68096">
        <ele>20</ele>
        <time>2019-09-10T15:49:09Z</time>
      </trkpt>
      <trkpt lat="50.84425" lon="1.68093">
        <ele>20</ele>
        <time>2019-09-10T15:49:09Z</time>
      </trkpt>
      <trkpt lat="50.84426" lon="1.68096">
        <ele>20</ele>
        <time>2019-09-10T15:49:09Z</time>
      </trkpt>
      <trkpt lat="50.84474" lon="1.68046">
        <ele>20</ele>
        <time>2019-09-10T15:49:19Z</time>
      </trkpt>
      <trkpt lat="50.84556" lon="1.67983">
        <ele>22</ele>
        <time>2019-09-10T15:49:36Z</time>
      </trkpt>
      <trkpt lat="50.84595" lon="1.6796">
        <ele>22</ele>
        <time>2019-09-10T15:49:43Z</time>
      </trkpt>
      <trkpt lat="50.84609" lon="1.67959">
        <ele>22</ele>
        <time>2019-09-10T15:49:46Z</time>
      </trkpt>
      <trkpt lat="50.84622" lon="1.67963">
        <ele>22</ele>
        <time>2019-09-10T15:49:48Z</time>
      </trkpt>
      <trkpt lat="50.84657" lon="1.67994">
        <ele>23</ele>
        <time>2019-09-10T15:49:55Z</time>
      </trkpt>
      <trkpt lat="50.847" lon="1.68046">
        <ele>25</ele>
        <time>2019-09-10T15:50:05Z</time>
      </trkpt>
      <trkpt lat="50.84789" lon="1.68174">
        <ele>26</ele>
        <time>2019-09-10T15:50:26Z</time>
      </trkpt>
      <trkpt lat="50.84817" lon="1.6821">
        <ele>26</ele>
        <time>2019-09-10T15:50:33Z</time>
      </trkpt>
      <trkpt lat="50.84841" lon="1.68233">
        <ele>27</ele>
        <time>2019-09-10T15:50:38Z</time>
      </trkpt>
      <trkpt lat="50.84899" lon="1.6828">
        <ele>27</ele>
        <time>2019-09-10T15:50:49Z</time>
      </trkpt>
      <trkpt lat="50.84923" lon="1.68293">
        <ele>28</ele>
        <time>2019-09-10T15:50:54Z</time>
      </trkpt>
      <trkpt lat="50.85019" lon="1.68318">
        <ele>30</ele>
        <time>2019-09-10T15:51:11Z</time>
      </trkpt>
      <trkpt lat="50.85083" lon="1.68333">
        <ele>31</ele>
        <time>2019-09-10T15:51:22Z</time>
      </trkpt>
      <trkpt lat="50.8512" lon="1.68345">
        <ele>31</ele>
        <time>2019-09-10T15:51:29Z</time>
      </trkpt>
      <trkpt lat="50.85214" lon="1.684">
        <ele>31</ele>
        <time>2019-09-10T15:51:47Z</time>
      </trkpt>
      <trkpt lat="50.85242" lon="1.68418">
        <ele>30</ele>
        <time>2019-09-10T15:51:52Z</time>
      </trkpt>
      <trkpt lat="50.85264" lon="1.6844">
        <ele>30</ele>
        <time>2019-09-10T15:51:57Z</time>
      </trkpt>
      <trkpt lat="50.85322" lon="1.68503">
        <ele>29</ele>
        <time>2019-09-10T15:52:10Z</time>
      </trkpt>
      <trkpt lat="50.85338" lon="1.68514">
        <ele>29</ele>
        <time>2019-09-10T15:52:13Z</time>
      </trkpt>
      <trkpt lat="50.85358" lon="1.68515">
        <ele>30</ele>
        <time>2019-09-10T15:52:16Z</time>
      </trkpt>
      <trkpt lat="50.85388" lon="1.68504">
        <ele>31</ele>
        <time>2019-09-10T15:52:22Z</time>
      </trkpt>
      <trkpt lat="50.85411" lon="1.68504">
        <ele>32</ele>
        <time>2019-09-10T15:52:26Z</time>
      </trkpt>
      <trkpt lat="50.8542" lon="1.68511">
        <ele>32</ele>
        <time>2019-09-10T15:52:28Z</time>
      </trkpt>
      <trkpt lat="50.85426" lon="1.68522">
        <ele>32</ele>
        <time>2019-09-10T15:52:29Z</time>
      </trkpt>
      <trkpt lat="50.85457" lon="1.6863">
        <ele>32</ele>
        <time>2019-09-10T15:52:43Z</time>
      </trkpt>
      <trkpt lat="50.85468" lon="1.68645">
        <ele>33</ele>
        <time>2019-09-10T15:52:45Z</time>
      </trkpt>
      <trkpt lat="50.85487" lon="1.68635">
        <ele>33</ele>
        <time>2019-09-10T15:52:49Z</time>
      </trkpt>
      <trkpt lat="50.85505" lon="1.68636">
        <ele>34</ele>
        <time>2019-09-10T15:52:52Z</time>
      </trkpt>
      <trkpt lat="50.85512" lon="1.68641">
        <ele>34</ele>
        <time>2019-09-10T15:52:53Z</time>
      </trkpt>
      <trkpt lat="50.85513" lon="1.6864">
        <ele>34</ele>
        <time>2019-09-10T15:52:53Z</time>
      </trkpt>
      <trkpt lat="50.85512" lon="1.68641">
        <ele>34</ele>
        <time>2019-09-10T15:52:54Z</time>
      </trkpt>
      <trkpt lat="50.85522" lon="1.68655">
        <ele>34</ele>
        <time>2019-09-10T15:52:56Z</time>
      </trkpt>
      <trkpt lat="50.85687" lon="1.68853">
        <ele>41</ele>
        <time>2019-09-10T15:53:33Z</time>
      </trkpt>
      <trkpt lat="50.85754" lon="1.68926">
        <ele>43</ele>
        <time>2019-09-10T15:53:47Z</time>
      </trkpt>
      <trkpt lat="50.85792" lon="1.68979">
        <ele>45</ele>
        <time>2019-09-10T15:53:56Z</time>
      </trkpt>
      <trkpt lat="50.85811" lon="1.69001">
        <ele>45</ele>
        <time>2019-09-10T15:54:01Z</time>
      </trkpt>
      <trkpt lat="50.85858" lon="1.69038">
        <ele>47</ele>
        <time>2019-09-10T15:54:10Z</time>
      </trkpt>
      <trkpt lat="50.85938" lon="1.69093">
        <ele>49</ele>
        <time>2019-09-10T15:54:25Z</time>
      </trkpt>
      <trkpt lat="50.85971" lon="1.6912">
        <ele>51</ele>
        <time>2019-09-10T15:54:32Z</time>
      </trkpt>
      <trkpt lat="50.85996" lon="1.69172">
        <ele>53</ele>
        <time>2019-09-10T15:54:39Z</time>
      </trkpt>
      <trkpt lat="50.86007" lon="1.69201">
        <ele>54</ele>
        <time>2019-09-10T15:54:43Z</time>
      </trkpt>
      <trkpt lat="50.86024" lon="1.69272">
        <ele>56</ele>
        <time>2019-09-10T15:54:52Z</time>
      </trkpt>
      <trkpt lat="50.86042" lon="1.69334">
        <ele>58</ele>
        <time>2019-09-10T15:54:59Z</time>
      </trkpt>
      <trkpt lat="50.86047" lon="1.69341">
        <ele>58</ele>
        <time>2019-09-10T15:55:00Z</time>
      </trkpt>
      <trkpt lat="50.86046" lon="1.69343">
        <ele>58</ele>
        <time>2019-09-10T15:55:01Z</time>
      </trkpt>
      <trkpt lat="50.86047" lon="1.69341">
        <ele>58</ele>
        <time>2019-09-10T15:55:01Z</time>
      </trkpt>
      <trkpt lat="50.86052" lon="1.69343">
        <ele>58</ele>
        <time>2019-09-10T15:55:02Z</time>
      </trkpt>
      <trkpt lat="50.86079" lon="1.6933">
        <ele>61</ele>
        <time>2019-09-10T15:55:07Z</time>
      </trkpt>
      <trkpt lat="50.86126" lon="1.69287">
        <ele>62</ele>
        <time>2019-09-10T15:55:17Z</time>
      </trkpt>
      <trkpt lat="50.86143" lon="1.69341">
        <ele>65</ele>
        <time>2019-09-10T15:55:23Z</time>
      </trkpt>
      <trkpt lat="50.86158" lon="1.69376">
        <ele>66</ele>
        <time>2019-09-10T15:55:28Z</time>
      </trkpt>
      <trkpt lat="50.86191" lon="1.6942">
        <ele>67</ele>
        <time>2019-09-10T15:55:36Z</time>
      </trkpt>
      <trkpt lat="50.86209" lon="1.69455">
        <ele>67</ele>
        <time>2019-09-10T15:55:41Z</time>
      </trkpt>
      <trkpt lat="50.86238" lon="1.69544">
        <ele>67</ele>
        <time>2019-09-10T15:55:52Z</time>
      </trkpt>
      <trkpt lat="50.86242" lon="1.69565">
        <ele>67</ele>
        <time>2019-09-10T15:55:55Z</time>
      </trkpt>
      <trkpt lat="50.86242" lon="1.6956">
        <ele>67</ele>
        <time>2019-09-10T15:55:55Z</time>
      </trkpt>
      <trkpt lat="50.86253" lon="1.69567">
        <ele>67</ele>
        <time>2019-09-10T15:55:57Z</time>
      </trkpt>
      <trkpt lat="50.8628" lon="1.69578">
        <ele>67</ele>
        <time>2019-09-10T15:56:02Z</time>
      </trkpt>
      <trkpt lat="50.86311" lon="1.69585">
        <ele>66</ele>
        <time>2019-09-10T15:56:08Z</time>
      </trkpt>
      <trkpt lat="50.86364" lon="1.69586">
        <ele>66</ele>
        <time>2019-09-10T15:56:17Z</time>
      </trkpt>
      <trkpt lat="50.86421" lon="1.69579">
        <ele>65</ele>
        <time>2019-09-10T15:56:27Z</time>
      </trkpt>
      <trkpt lat="50.86467" lon="1.69563">
        <ele>66</ele>
        <time>2019-09-10T15:56:36Z</time>
      </trkpt>
      <trkpt lat="50.86494" lon="1.69558">
        <ele>67</ele>
        <time>2019-09-10T15:56:41Z</time>
      </trkpt>
      <trkpt lat="50.86556" lon="1.69566">
        <ele>71</ele>
        <time>2019-09-10T15:56:52Z</time>
      </trkpt>
      <trkpt lat="50.86579" lon="1.69574">
        <ele>73</ele>
        <time>2019-09-10T15:56:56Z</time>
      </trkpt>
      <trkpt lat="50.86655" lon="1.69607">
        <ele>79</ele>
        <time>2019-09-10T15:57:10Z</time>
      </trkpt>
      <trkpt lat="50.8668" lon="1.69615">
        <ele>80</ele>
        <time>2019-09-10T15:57:14Z</time>
      </trkpt>
      <trkpt lat="50.86709" lon="1.6962">
        <ele>81</ele>
        <time>2019-09-10T15:57:20Z</time>
      </trkpt>
      <trkpt lat="50.86737" lon="1.69629">
        <ele>81</ele>
        <time>2019-09-10T15:57:25Z</time>
      </trkpt>
      <trkpt lat="50.86787" lon="1.69653">
        <ele>82</ele>
        <time>2019-09-10T15:57:34Z</time>
      </trkpt>
      <trkpt lat="50.86847" lon="1.69691">
        <ele>84</ele>
        <time>2019-09-10T15:57:46Z</time>
      </trkpt>
      <trkpt lat="50.8688" lon="1.6971">
        <ele>84</ele>
        <time>2019-09-10T15:57:52Z</time>
      </trkpt>
      <trkpt lat="50.86914" lon="1.69722">
        <ele>84</ele>
        <time>2019-09-10T15:57:58Z</time>
      </trkpt>
      <trkpt lat="50.8702" lon="1.69751">
        <ele>87</ele>
        <time>2019-09-10T15:58:17Z</time>
      </trkpt>
      <trkpt lat="50.87067" lon="1.69768">
        <ele>89</ele>
        <time>2019-09-10T15:58:26Z</time>
      </trkpt>
      <trkpt lat="50.871" lon="1.69784">
        <ele>90</ele>
        <time>2019-09-10T15:58:32Z</time>
      </trkpt>
      <trkpt lat="50.87113" lon="1.69786">
        <ele>91</ele>
        <time>2019-09-10T15:58:34Z</time>
      </trkpt>
      <trkpt lat="50.87272" lon="1.69782">
        <ele>95</ele>
        <time>2019-09-10T15:59:02Z</time>
      </trkpt>
      <trkpt lat="50.87311" lon="1.69785">
        <ele>96</ele>
        <time>2019-09-10T15:59:09Z</time>
      </trkpt>
      <trkpt lat="50.87388" lon="1.69812">
        <ele>96</ele>
        <time>2019-09-10T15:59:23Z</time>
      </trkpt>
      <trkpt lat="50.87408" lon="1.69833">
        <ele>97</ele>
        <time>2019-09-10T15:59:28Z</time>
      </trkpt>
      <trkpt lat="50.87453" lon="1.69903">
        <ele>100</ele>
        <time>2019-09-10T15:59:39Z</time>
      </trkpt>
      <trkpt lat="50.87494" lon="1.69982">
        <ele>102</ele>
        <time>2019-09-10T15:59:50Z</time>
      </trkpt>
      <trkpt lat="50.87509" lon="1.70016">
        <ele>103</ele>
        <time>2019-09-10T15:59:55Z</time>
      </trkpt>
      <trkpt lat="50.8753" lon="1.70095">
        <ele>102</ele>
        <time>2019-09-10T16:00:05Z</time>
      </trkpt>
      <trkpt lat="50.87566" lon="1.7021">
        <ele>94</ele>
        <time>2019-09-10T16:00:19Z</time>
      </trkpt>
      <trkpt lat="50.87586" lon="1.70258">
        <ele>90</ele>
        <time>2019-09-10T16:00:26Z</time>
      </trkpt>
      <trkpt lat="50.87621" lon="1.70312">
        <ele>87</ele>
        <time>2019-09-10T16:00:34Z</time>
      </trkpt>
      <trkpt lat="50.87668" lon="1.70371">
        <ele>84</ele>
        <time>2019-09-10T16:00:45Z</time>
      </trkpt>
      <trkpt lat="50.87714" lon="1.70411">
        <ele>81</ele>
        <time>2019-09-10T16:00:54Z</time>
      </trkpt>
      <trkpt lat="50.87815" lon="1.70463">
        <ele>79</ele>
        <time>2019-09-10T16:01:13Z</time>
      </trkpt>
      <trkpt lat="50.87851" lon="1.70517">
        <ele>75</ele>
        <time>2019-09-10T16:01:22Z</time>
      </trkpt>
      <trkpt lat="50.87878" lon="1.70549">
        <ele>73</ele>
        <time>2019-09-10T16:01:28Z</time>
      </trkpt>
      <trkpt lat="50.87936" lon="1.70606">
        <ele>68</ele>
        <time>2019-09-10T16:01:40Z</time>
      </trkpt>
      <trkpt lat="50.8795" lon="1.70617">
        <ele>68</ele>
        <time>2019-09-10T16:01:43Z</time>
      </trkpt>
      <trkpt lat="50.8801" lon="1.70641">
        <ele>66</ele>
        <time>2019-09-10T16:01:54Z</time>
      </trkpt>
      <trkpt lat="50.88027" lon="1.70651">
        <ele>65</ele>
        <time>2019-09-10T16:01:57Z</time>
      </trkpt>
      <trkpt lat="50.88042" lon="1.70665">
        <ele>64</ele>
        <time>2019-09-10T16:02:00Z</time>
      </trkpt>
      <trkpt lat="50.88062" lon="1.70695">
        <ele>63</ele>
        <time>2019-09-10T16:02:05Z</time>
      </trkpt>
      <trkpt lat="50.88123" lon="1.70812">
        <ele>59</ele>
        <time>2019-09-10T16:02:22Z</time>
      </trkpt>
      <trkpt lat="50.88135" lon="1.70837">
        <ele>57</ele>
        <time>2019-09-10T16:02:26Z</time>
      </trkpt>
      <trkpt lat="50.88143" lon="1.70859">
        <ele>57</ele>
        <time>2019-09-10T16:02:29Z</time>
      </trkpt>
      <trkpt lat="50.88148" lon="1.70885">
        <ele>57</ele>
        <time>2019-09-10T16:02:32Z</time>
      </trkpt>
      <trkpt lat="50.88149" lon="1.70905">
        <ele>57</ele>
        <time>2019-09-10T16:02:34Z</time>
      </trkpt>
      <trkpt lat="50.88149" lon="1.70928">
        <ele>57</ele>
        <time>2019-09-10T16:02:36Z</time>
      </trkpt>
      <trkpt lat="50.88145" lon="1.7096">
        <ele>58</ele>
        <time>2019-09-10T16:02:40Z</time>
      </trkpt>
      <trkpt lat="50.88147" lon="1.70987">
        <ele>59</ele>
        <time>2019-09-10T16:02:43Z</time>
      </trkpt>
      <trkpt lat="50.88187" lon="1.71041">
        <ele>54</ele>
        <time>2019-09-10T16:02:53Z</time>
      </trkpt>
      <trkpt lat="50.88209" lon="1.71077">
        <ele>53</ele>
        <time>2019-09-10T16:02:58Z</time>
      </trkpt>
      <trkpt lat="50.88226" lon="1.71118">
        <ele>52</ele>
        <time>2019-09-10T16:03:04Z</time>
      </trkpt>
      <trkpt lat="50.88237" lon="1.71092">
        <ele>51</ele>
        <time>2019-09-10T16:03:07Z</time>
      </trkpt>
      <trkpt lat="50.88267" lon="1.71031">
        <ele>50</ele>
        <time>2019-09-10T16:03:16Z</time>
      </trkpt>
      <trkpt lat="50.88289" lon="1.70947">
        <ele>49</ele>
        <time>2019-09-10T16:03:26Z</time>
      </trkpt>
      <trkpt lat="50.88295" lon="1.70933">
        <ele>49</ele>
        <time>2019-09-10T16:03:28Z</time>
      </trkpt>
      <trkpt lat="50.88364" lon="1.70825">
        <ele>48</ele>
        <time>2019-09-10T16:03:45Z</time>
      </trkpt>
      <trkpt lat="50.88375" lon="1.70803">
        <ele>48</ele>
        <time>2019-09-10T16:03:48Z</time>
      </trkpt>
      <trkpt lat="50.88426" lon="1.70683">
        <ele>45</ele>
        <time>2019-09-10T16:04:05Z</time>
      </trkpt>
      <trkpt lat="50.88443" lon="1.70636">
        <ele>45</ele>
        <time>2019-09-10T16:04:11Z</time>
      </trkpt>
      <trkpt lat="50.88516" lon="1.70355">
        <ele>44</ele>
        <time>2019-09-10T16:04:45Z</time>
      </trkpt>
      <trkpt lat="50.88551" lon="1.70271">
        <ele>43</ele>
        <time>2019-09-10T16:04:56Z</time>
      </trkpt>
      <trkpt lat="50.88588" lon="1.70191">
        <ele>41</ele>
        <time>2019-09-10T16:05:07Z</time>
      </trkpt>
      <trkpt lat="50.88613" lon="1.70127">
        <ele>39</ele>
        <time>2019-09-10T16:05:16Z</time>
      </trkpt>
      <trkpt lat="50.88636" lon="1.70039">
        <ele>36</ele>
        <time>2019-09-10T16:05:26Z</time>
      </trkpt>
      <trkpt lat="50.88654" lon="1.69995">
        <ele>35</ele>
        <time>2019-09-10T16:05:32Z</time>
      </trkpt>
      <trkpt lat="50.88721" lon="1.69887">
        <ele>34</ele>
        <time>2019-09-10T16:05:49Z</time>
      </trkpt>
      <trkpt lat="50.88852" lon="1.69646">
        <ele>36</ele>
        <time>2019-09-10T16:06:25Z</time>
      </trkpt>
      <trkpt lat="50.88879" lon="1.69575">
        <ele>37</ele>
        <time>2019-09-10T16:06:34Z</time>
      </trkpt>
      <trkpt lat="50.88908" lon="1.69481">
        <ele>36</ele>
        <time>2019-09-10T16:06:46Z</time>
      </trkpt>
      <trkpt lat="50.88921" lon="1.69421">
        <ele>36</ele>
        <time>2019-09-10T16:06:53Z</time>
      </trkpt>
      <trkpt lat="50.88958" lon="1.69157">
        <ele>37</ele>
        <time>2019-09-10T16:07:23Z</time>
      </trkpt>
      <trkpt lat="50.88963" lon="1.69136">
        <ele>37</ele>
        <time>2019-09-10T16:07:26Z</time>
      </trkpt>
      <trkpt lat="50.88977" lon="1.69029">
        <ele>37</ele>
        <time>2019-09-10T16:07:38Z</time>
      </trkpt>
      <trkpt lat="50.88976" lon="1.6866">
        <ele>38</ele>
        <time>2019-09-10T16:08:20Z</time>
      </trkpt>
      <trkpt lat="50.88979" lon="1.68633">
        <ele>39</ele>
        <time>2019-09-10T16:08:23Z</time>
      </trkpt>
      <trkpt lat="50.89009" lon="1.68478">
        <ele>44</ele>
        <time>2019-09-10T16:08:41Z</time>
      </trkpt>
      <trkpt lat="50.89011" lon="1.68436">
        <ele>44</ele>
        <time>2019-09-10T16:08:46Z</time>
      </trkpt>
      <trkpt lat="50.88981" lon="1.67987">
        <ele>32</ele>
        <time>2019-09-10T16:09:36Z</time>
      </trkpt>
      <trkpt lat="50.88966" lon="1.67924">
        <ele>32</ele>
        <time>2019-09-10T16:09:44Z</time>
      </trkpt>
      <trkpt lat="50.88887" lon="1.67684">
        <ele>33</ele>
        <time>2019-09-10T16:10:14Z</time>
      </trkpt>
      <trkpt lat="50.8886" lon="1.67574">
        <ele>32</ele>
        <time>2019-09-10T16:10:28Z</time>
      </trkpt>
      <trkpt lat="50.8883" lon="1.67495">
        <ele>30</ele>
        <time>2019-09-10T16:10:38Z</time>
      </trkpt>
      <trkpt lat="50.88846" lon="1.67482">
        <ele>31</ele>
        <time>2019-09-10T16:10:41Z</time>
      </trkpt>
      <trkpt lat="50.8884" lon="1.67429">
        <ele>30</ele>
        <time>2019-09-10T16:10:47Z</time>
      </trkpt>
      <trkpt lat="50.88833" lon="1.67354">
        <ele>27</ele>
        <time>2019-09-10T16:10:56Z</time>
      </trkpt>
      <trkpt lat="50.88834" lon="1.67323">
        <ele>27</ele>
        <time>2019-09-10T16:10:59Z</time>
      </trkpt>
      <trkpt lat="50.88854" lon="1.67175">
        <ele>24</ele>
        <time>2019-09-10T16:11:16Z</time>
      </trkpt>
      <trkpt lat="50.88854" lon="1.67137">
        <ele>24</ele>
        <time>2019-09-10T16:11:20Z</time>
      </trkpt>
      <trkpt lat="50.88809" lon="1.66934">
        <ele>22</ele>
        <time>2019-09-10T16:11:45Z</time>
      </trkpt>
      <trkpt lat="50.88766" lon="1.6676">
        <ele>24</ele>
        <time>2019-09-10T16:12:06Z</time>
      </trkpt>
      <trkpt lat="50.88743" lon="1.66654">
        <ele>26</ele>
        <time>2019-09-10T16:12:18Z</time>
      </trkpt>
      <trkpt lat="50.88718" lon="1.66575">
        <ele>24</ele>
        <time>2019-09-10T16:12:28Z</time>
      </trkpt>
      <trkpt lat="50.88702" lon="1.66518">
        <ele>21</ele>
        <time>2019-09-10T16:12:35Z</time>
      </trkpt>
      <trkpt lat="50.88683" lon="1.66471">
        <ele>19</ele>
        <time>2019-09-10T16:12:41Z</time>
      </trkpt>
      <trkpt lat="50.88669" lon="1.664">
        <ele>16</ele>
        <time>2019-09-10T16:12:50Z</time>
      </trkpt>
      <trkpt lat="50.88672" lon="1.66386">
        <ele>16</ele>
        <time>2019-09-10T16:12:51Z</time>
      </trkpt>
      <trkpt lat="50.88667" lon="1.66367">
        <ele>15</ele>
        <time>2019-09-10T16:12:54Z</time>
      </trkpt>
    </trkseg>
  </trk>
</gpx>